createdAt,value
2023-01-29T00:02:25.175Z,2.04
2023-01-29T00:04:57.145Z,2.03
2023-01-29T00:07:28.357Z,2.04
2023-01-29T00:09:56.680Z,2.05
2023-01-29T00:12:24.916Z,2.03
2023-01-29T00:14:53.203Z,2.00
2023-01-29T00:17:21.521Z,1.97
2023-01-29T00:19:49.674Z,1.92
2023-01-29T00:22:17.948Z,1.90
2023-01-29T00:24:47.425Z,1.83
2023-01-29T00:27:15.612Z,1.74
2023-01-29T00:29:43.799Z,1.65
2023-01-29T00:32:12.145Z,1.62
2023-01-29T00:34:40.425Z,1.59
2023-01-29T00:37:09.126Z,1.58
2023-01-29T00:39:47.801Z,1.59
2023-01-29T00:42:35.191Z,1.60
2023-01-29T00:45:03.615Z,1.60
2023-01-29T00:47:33.618Z,1.60
2023-01-29T00:50:02.828Z,1.61
2023-01-29T00:52:31.397Z,1.57
2023-01-29T00:55:01.132Z,1.54
2023-01-29T00:57:33.078Z,1.50
2023-01-29T01:00:01.866Z,1.46
2023-01-29T01:02:47.504Z,1.41
2023-01-29T01:05:19.045Z,1.39
2023-01-29T01:07:48.610Z,1.39
2023-01-29T01:10:24.343Z,1.42
2023-01-29T01:12:58.005Z,1.44
2023-01-29T01:15:28.091Z,1.47
2023-01-29T01:17:58.225Z,1.47
2023-01-29T01:20:27.685Z,1.49
2023-01-29T01:22:56.404Z,1.51
2023-01-29T01:25:25.683Z,1.51
2023-01-29T01:27:56.171Z,1.48
2023-01-29T01:30:25.533Z,1.47
2023-01-29T01:32:53.726Z,1.44
2023-01-29T01:35:22.010Z,1.39
2023-01-29T01:37:50.539Z,1.36
2023-01-29T01:40:20.458Z,1.34
2023-01-29T01:42:50.393Z,1.36
2023-01-29T01:45:24.427Z,1.36
2023-01-29T01:47:57.338Z,1.39
2023-01-29T01:50:30.354Z,1.41
2023-01-29T01:53:03.773Z,1.41
2023-01-29T01:55:34.397Z,1.43
2023-01-29T01:58:08.464Z,1.43
2023-01-29T02:00:40.997Z,1.42
2023-01-29T02:03:29.326Z,1.44
2023-01-29T02:06:18.563Z,1.44
2023-01-29T02:09:10.932Z,1.41
2023-01-29T02:11:39.663Z,1.36
2023-01-29T02:14:08.379Z,1.27
2023-01-29T02:16:38.231Z,1.21
2023-01-29T02:19:15.404Z,1.09
2023-01-29T02:22:03.671Z,0.97
2023-01-29T02:25:10.041Z,0.89
2023-01-29T02:28:03.599Z,0.84
2023-01-29T02:30:37.634Z,0.82
2023-01-29T02:33:14.285Z,0.86
2023-01-29T02:35:46.348Z,0.86
2023-01-29T02:38:23.910Z,0.88
2023-01-29T02:40:56.775Z,0.93
2023-01-29T02:43:35.478Z,0.99
2023-01-29T02:46:12.314Z,1.01
2023-01-29T02:48:46.043Z,0.99
2023-01-29T02:51:20.660Z,0.95
2023-01-29T02:53:56.918Z,0.87
2023-01-29T02:56:31.707Z,0.75
2023-01-29T02:59:07.424Z,0.64
2023-01-29T03:01:42.109Z,0.56
2023-01-29T03:04:15.909Z,0.49
2023-01-29T03:06:46.675Z,0.42
2023-01-29T03:09:23.447Z,0.42
2023-01-29T03:11:56.336Z,0.44
2023-01-29T03:14:52.618Z,0.50
2023-01-29T03:17:24.345Z,0.58
2023-01-29T03:19:52.784Z,0.66
2023-01-29T03:22:25.310Z,0.73
2023-01-29T03:25:15.508Z,0.79
2023-01-29T03:28:08.751Z,0.87
2023-01-29T03:31:04.581Z,0.94
2023-01-29T03:33:47.093Z,0.99
2023-01-29T03:36:19.736Z,1.00
2023-01-29T03:38:48.091Z,1.01
2023-01-29T03:41:26.414Z,1.01
2023-01-29T03:44:02.534Z,1.03
2023-01-29T03:46:37.784Z,1.05
2023-01-29T03:49:13.553Z,1.12
2023-01-29T03:51:52.404Z,1.11
2023-01-29T03:54:27.421Z,1.12
2023-01-29T03:57:02.111Z,1.12
2023-01-29T03:59:40.752Z,1.12
2023-01-29T04:02:33.861Z,1.10
2023-01-29T04:05:13.444Z,1.09
2023-01-29T04:07:55.429Z,1.15
2023-01-29T04:10:28.228Z,1.19
2023-01-29T04:13:01.311Z,1.21
2023-01-29T04:15:35.324Z,1.24
2023-01-29T04:18:05.169Z,1.23
2023-01-29T04:20:44.778Z,1.17
2023-01-29T04:23:22.594Z,1.07
2023-01-29T04:26:07.023Z,1.01
2023-01-29T04:28:52.224Z,1.00
2023-01-29T04:31:26.210Z,0.98
2023-01-29T04:34:09.460Z,0.91
2023-01-29T04:36:45.837Z,0.80
2023-01-29T04:39:21.331Z,0.69
2023-01-29T04:41:55.475Z,0.54
2023-01-29T04:44:34.228Z,0.42
2023-01-29T04:47:11.857Z,0.30
2023-01-29T04:49:48.655Z,0.16
2023-01-29T04:52:23.975Z,0.04
2023-01-29T04:55:02.586Z,-0.19
2023-01-29T04:57:37.662Z,-0.37
2023-01-29T05:00:12.788Z,-0.50
2023-01-29T05:02:43.485Z,-0.60
2023-01-29T05:05:16.727Z,-0.60
2023-01-29T05:07:45.752Z,-0.60
2023-01-29T05:10:16.063Z,-0.57
2023-01-29T05:12:49.751Z,-0.55
2023-01-29T05:15:23.783Z,-0.45
2023-01-29T05:17:53.875Z,-0.39
2023-01-29T05:20:23.546Z,-0.38
2023-01-29T05:22:52.054Z,-0.36
2023-01-29T05:25:24.304Z,-0.20
2023-01-29T05:28:11.614Z,0.11
2023-01-29T05:30:41.093Z,0.39
2023-01-29T05:33:14.549Z,0.61
2023-01-29T05:35:44.645Z,0.74
2023-01-29T05:38:12.926Z,0.80
2023-01-29T05:40:41.770Z,0.86
2023-01-29T05:43:17.173Z,1.01
2023-01-29T05:45:52.615Z,1.17
2023-01-29T05:48:20.915Z,1.35
2023-01-29T05:50:50.427Z,1.51
2023-01-29T05:53:18.988Z,1.60
2023-01-29T05:55:47.558Z,1.74
2023-01-29T05:58:15.938Z,1.82
2023-01-29T06:00:44.180Z,1.86
2023-01-29T06:03:12.484Z,1.91
2023-01-29T06:05:41.079Z,1.95
2023-01-29T06:08:10.575Z,1.97
2023-01-29T06:10:38.673Z,1.98
2023-01-29T06:13:07.083Z,2.00
2023-01-29T06:15:35.264Z,2.00
2023-01-29T06:18:03.555Z,2.01
2023-01-29T06:20:31.698Z,2.02
2023-01-29T06:23:00.030Z,2.03
2023-01-29T06:25:29.506Z,2.00
2023-01-29T06:27:59.436Z,1.95
2023-01-29T06:30:28.473Z,1.91
2023-01-29T06:32:58.906Z,1.84
2023-01-29T06:35:27.412Z,1.83
2023-01-29T06:37:55.574Z,1.83
2023-01-29T06:40:23.887Z,1.84
2023-01-29T06:42:53.324Z,1.83
2023-01-29T06:45:21.587Z,1.79
2023-01-29T06:47:49.785Z,1.75
2023-01-29T06:50:18.669Z,1.71
2023-01-29T06:52:46.947Z,1.68
2023-01-29T06:55:15.335Z,1.63
2023-01-29T06:57:43.504Z,1.59
2023-01-29T07:00:14.451Z,1.60
2023-01-29T07:02:42.912Z,1.60
2023-01-29T07:05:11.077Z,1.62
2023-01-29T07:07:39.282Z,1.65
2023-01-29T07:10:08.465Z,1.69
2023-01-29T07:12:36.666Z,1.72
2023-01-29T07:15:05.205Z,1.77
2023-01-29T07:17:34.675Z,1.76
2023-01-29T07:20:02.783Z,1.77
2023-01-29T07:22:30.994Z,1.78
2023-01-29T07:24:59.336Z,1.84
2023-01-29T07:27:28.682Z,1.96
2023-01-29T07:29:56.874Z,2.09
2023-01-29T07:32:25.124Z,2.14
2023-01-29T07:34:54.586Z,2.22
2023-01-29T07:37:22.776Z,2.29
2023-01-29T07:39:51.356Z,2.39
2023-01-29T07:42:19.583Z,2.47
2023-01-29T07:44:47.696Z,2.50
2023-01-29T07:47:17.269Z,2.53
2023-01-29T07:49:45.494Z,2.57
2023-01-29T07:52:15.047Z,2.59
2023-01-29T07:54:43.315Z,2.64
2023-01-29T07:57:11.550Z,2.68
2023-01-29T07:59:39.716Z,2.73
2023-01-29T08:02:08.082Z,2.81
2023-01-29T08:04:36.438Z,2.84
2023-01-29T08:07:04.999Z,2.89
2023-01-29T08:09:34.505Z,2.95
2023-01-29T08:12:02.697Z,3.00
2023-01-29T08:14:30.895Z,3.06
2023-01-29T08:16:59.086Z,3.11
2023-01-29T08:19:27.214Z,3.17
2023-01-29T08:21:55.415Z,3.20
2023-01-29T08:24:28.253Z,3.26
2023-01-29T08:27:05.774Z,3.28
2023-01-29T08:29:33.983Z,3.30
2023-01-29T08:32:02.342Z,3.30
2023-01-29T08:34:30.509Z,3.34
2023-01-29T08:36:58.696Z,3.35
2023-01-29T08:39:26.876Z,3.35
2023-01-29T08:41:55.141Z,3.36
2023-01-29T08:44:24.636Z,3.37
2023-01-29T08:46:52.885Z,3.38
2023-01-29T08:49:21.052Z,3.40
2023-01-29T08:51:49.329Z,3.43
2023-01-29T08:54:17.500Z,3.44
2023-01-29T08:56:45.962Z,3.46
2023-01-29T08:59:14.361Z,3.49
2023-01-29T09:01:43.995Z,3.49
2023-01-29T09:04:12.153Z,3.52
2023-01-29T09:06:40.344Z,3.55
2023-01-29T09:09:08.704Z,3.57
2023-01-29T09:11:38.224Z,3.62
2023-01-29T09:14:06.383Z,3.69
2023-01-29T09:16:34.650Z,3.75
2023-01-29T09:19:04.195Z,3.80
2023-01-29T09:21:32.452Z,3.82
2023-01-29T09:24:00.605Z,3.87
2023-01-29T09:26:28.946Z,3.91
2023-01-29T09:28:57.414Z,3.93
2023-01-29T09:31:25.843Z,3.92
2023-01-29T09:33:54.155Z,3.91
2023-01-29T09:36:23.685Z,3.91
2023-01-29T09:38:51.896Z,3.89
2023-01-29T09:41:35.061Z,3.92
2023-01-29T09:44:06.381Z,3.93
2023-01-29T09:46:39.738Z,3.95
2023-01-29T09:49:16.035Z,3.97
2023-01-29T09:51:50.206Z,3.99
2023-01-29T09:54:24.321Z,4.00
2023-01-29T09:56:56.392Z,4.01
2023-01-29T09:59:27.888Z,4.02
2023-01-29T10:02:05.803Z,4.06
2023-01-29T10:05:04.885Z,4.11
2023-01-29T10:07:56.571Z,4.18
2023-01-29T10:10:36.931Z,4.24
2023-01-29T10:13:16.798Z,4.33
2023-01-29T10:15:59.536Z,4.43
2023-01-29T10:18:42.457Z,4.50
2023-01-29T10:21:28.409Z,4.61
2023-01-29T10:24:06.982Z,4.68
2023-01-29T10:26:37.948Z,4.75
2023-01-29T10:29:09.125Z,4.80
2023-01-29T10:31:40.928Z,4.86
2023-01-29T10:34:16.026Z,4.90
2023-01-29T10:36:46.258Z,4.99
2023-01-29T10:39:20.561Z,5.05
2023-01-29T10:41:59.318Z,5.09
2023-01-29T10:44:38.129Z,5.12
2023-01-29T10:47:22.515Z,5.12
2023-01-29T10:50:11.760Z,5.17
2023-01-29T10:52:50.705Z,5.22
2023-01-29T10:55:35.789Z,5.26
2023-01-29T10:58:15.293Z,5.29
2023-01-29T11:00:44.009Z,5.29
2023-01-29T11:06:13.984Z,5.36
2023-01-29T11:08:47.804Z,5.42
2023-01-29T11:11:22.053Z,5.45
2023-01-29T11:13:57.903Z,5.47
2023-01-29T11:16:28.234Z,5.45
2023-01-29T11:18:58.658Z,5.49
2023-01-29T11:21:28.701Z,5.52
2023-01-29T11:24:08.495Z,5.54
2023-01-29T11:26:41.601Z,5.58
2023-01-29T11:29:33.144Z,5.61
2023-01-29T11:32:05.052Z,5.65
2023-01-29T11:34:33.397Z,5.68
2023-01-29T11:37:03.750Z,5.72
2023-01-29T11:39:33.325Z,5.76
2023-01-29T11:42:04.646Z,5.75
2023-01-29T11:44:36.608Z,5.78
2023-01-29T11:47:26.775Z,5.82
2023-01-29T11:49:57.038Z,5.83
2023-01-29T11:52:27.264Z,5.87
2023-01-29T11:54:59.773Z,5.89
2023-01-29T11:57:34.242Z,5.95
2023-01-29T12:00:06.764Z,6.06
2023-01-29T12:02:39.902Z,6.24
2023-01-29T12:05:17.085Z,6.38
2023-01-29T12:07:47.427Z,6.51
2023-01-29T12:10:32.759Z,6.59
2023-01-29T12:13:22.769Z,6.59
2023-01-29T12:15:53.827Z,6.57
2023-01-29T12:18:30.946Z,6.65
2023-01-29T12:21:02.719Z,6.72
2023-01-29T12:23:42.300Z,6.73
2023-01-29T12:26:16.044Z,6.80
2023-01-29T12:28:51.077Z,6.92
2023-01-29T12:31:30.165Z,7.05
2023-01-29T12:34:06.753Z,7.12
2023-01-29T12:36:43.067Z,7.05
2023-01-29T12:39:14.307Z,6.94
2023-01-29T12:41:46.516Z,6.77
2023-01-29T12:44:20.844Z,6.63
2023-01-29T12:46:54.715Z,6.45
2023-01-29T12:49:27.235Z,6.36
2023-01-29T12:52:02.065Z,6.30
2023-01-29T12:54:37.983Z,6.23
2023-01-29T12:57:12.221Z,6.19
2023-01-29T12:59:46.714Z,6.15
2023-01-29T13:02:25.021Z,6.20
2023-01-29T13:05:00.491Z,6.25
2023-01-29T13:07:32.974Z,6.33
2023-01-29T13:10:08.584Z,6.43
2023-01-29T13:12:38.464Z,6.54
2023-01-29T13:15:19.235Z,6.65
2023-01-29T13:17:53.720Z,6.69
2023-01-29T13:20:29.961Z,6.60
2023-01-29T13:23:05.210Z,6.50
2023-01-29T13:25:33.526Z,6.42
2023-01-29T13:28:02.055Z,6.38
2023-01-29T13:30:33.962Z,6.35
2023-01-29T13:33:12.111Z,6.32
2023-01-29T13:35:43.709Z,6.35
2023-01-29T13:38:28.052Z,6.40
2023-01-29T13:41:01.938Z,6.46
2023-01-29T13:43:35.403Z,6.57
2023-01-29T13:46:12.245Z,6.65
2023-01-29T13:48:44.079Z,6.72
2023-01-29T13:51:19.608Z,6.68
2023-01-29T13:53:56.496Z,6.55
2023-01-29T13:56:42.908Z,6.45
2023-01-29T13:59:24.019Z,6.39
2023-01-29T14:02:29.722Z,6.35
2023-01-29T14:05:34.074Z,6.41
2023-01-29T14:08:04.763Z,6.47
2023-01-29T14:10:34.935Z,6.52
2023-01-29T14:13:37.292Z,6.62
2023-01-29T14:16:28.800Z,6.74
2023-01-29T14:19:00.149Z,6.83
2023-01-29T14:21:31.927Z,6.92
2023-01-29T14:24:11.526Z,7.04
2023-01-29T14:26:46.128Z,7.08
2023-01-29T14:29:29.091Z,7.10
2023-01-29T14:32:15.216Z,7.04
2023-01-29T14:34:46.047Z,6.98
2023-01-29T14:37:23.277Z,6.90
2023-01-29T14:39:56.108Z,6.81
2023-01-29T14:42:27.744Z,6.77
2023-01-29T14:45:01.094Z,6.72
2023-01-29T14:47:55.191Z,6.63
2023-01-29T14:50:43.826Z,6.50
2023-01-29T14:53:18.069Z,6.43
2023-01-29T14:55:54.146Z,6.37
2023-01-29T14:58:30.085Z,6.34
2023-01-29T15:01:00.741Z,6.32
2023-01-29T15:03:38.271Z,6.31
2023-01-29T15:06:09.098Z,6.32
2023-01-29T15:08:44.791Z,6.33
2023-01-29T15:11:39.674Z,6.29
2023-01-29T15:14:18.954Z,6.25
2023-01-29T15:16:56.811Z,6.23
2023-01-29T15:19:29.675Z,6.20
2023-01-29T15:22:05.118Z,6.19
2023-01-29T15:24:33.432Z,6.17
2023-01-29T15:27:03.605Z,6.14
2023-01-29T15:29:32.123Z,6.09
2023-01-29T15:32:00.468Z,6.04
2023-01-29T15:34:28.846Z,6.02
2023-01-29T15:36:57.062Z,6.00
2023-01-29T15:39:27.830Z,6.00
2023-01-29T15:42:21.762Z,5.99
2023-01-29T15:44:50.158Z,5.91
2023-01-29T15:47:18.668Z,5.88
2023-01-29T15:49:49.114Z,5.86
2023-01-29T15:52:21.493Z,5.81
2023-01-29T15:54:50.191Z,5.75
2023-01-29T15:57:24.808Z,5.69
2023-01-29T15:59:55.803Z,5.65
2023-01-29T16:02:33.991Z,5.61
2023-01-29T16:05:02.691Z,5.56
2023-01-29T16:07:31.594Z,5.53
2023-01-29T16:10:00.990Z,5.51
2023-01-29T16:12:30.659Z,5.44
2023-01-29T16:14:59.078Z,5.38
2023-01-29T16:17:35.235Z,5.28
2023-01-29T16:20:05.570Z,5.17
2023-01-29T16:22:36.555Z,5.06
2023-01-29T16:25:06.596Z,4.97
2023-01-29T16:27:36.507Z,4.90
2023-01-29T16:30:07.596Z,4.82
2023-01-29T16:32:36.614Z,4.75
2023-01-29T16:35:05.196Z,4.71
2023-01-29T16:37:36.442Z,4.65
2023-01-29T16:40:14.962Z,4.60
2023-01-29T16:42:44.515Z,4.51
2023-01-29T16:45:28.244Z,4.47
2023-01-29T16:48:02.803Z,4.44
2023-01-29T16:50:46.210Z,4.35
2023-01-29T16:53:19.814Z,4.29
2023-01-29T16:55:50.281Z,4.18
2023-01-29T16:58:22.765Z,4.08
2023-01-29T17:00:56.296Z,3.98
2023-01-29T17:03:27.541Z,3.90
2023-01-29T17:05:56.290Z,3.80
2023-01-29T17:08:28.354Z,3.67
2023-01-29T17:10:56.861Z,3.64
2023-01-29T17:13:32.455Z,3.59
2023-01-29T17:16:03.425Z,3.54
2023-01-29T17:18:32.027Z,3.53
2023-01-29T17:21:00.719Z,3.51
2023-01-29T17:23:29.035Z,3.52
2023-01-29T17:25:57.387Z,3.58
2023-01-29T17:28:27.311Z,3.56
2023-01-29T17:31:05.851Z,3.51
2023-01-29T17:33:35.734Z,3.54
2023-01-29T17:36:04.044Z,3.59
2023-01-29T17:38:32.513Z,3.64
2023-01-29T17:41:05.283Z,3.65
2023-01-29T17:43:35.465Z,3.64
2023-01-29T17:46:03.716Z,3.62
2023-01-29T17:48:32.245Z,3.54
2023-01-29T17:51:03.739Z,3.46
2023-01-29T17:53:45.180Z,3.45
2023-01-29T17:56:17.475Z,3.48
2023-01-29T17:58:47.056Z,3.47
2023-01-29T18:01:15.505Z,3.39
2023-01-29T18:03:43.876Z,3.36
2023-01-29T18:06:17.433Z,3.36
2023-01-29T18:08:45.731Z,3.37
2023-01-29T18:11:14.151Z,3.41
2023-01-29T18:13:42.739Z,3.49
2023-01-29T18:16:12.286Z,3.52
2023-01-29T18:18:41.138Z,3.64
2023-01-29T18:21:09.408Z,3.69
2023-01-29T18:23:37.580Z,3.70
2023-01-29T18:26:07.607Z,3.71
2023-01-29T18:28:35.881Z,3.81
2023-01-29T18:31:04.767Z,3.88
2023-01-29T18:33:34.986Z,3.87
2023-01-29T18:36:05.067Z,3.86
2023-01-29T18:38:34.295Z,3.85
2023-01-29T18:41:06.215Z,3.83
2023-01-29T18:43:34.475Z,3.80
2023-01-29T18:46:02.794Z,3.75
2023-01-29T18:48:31.588Z,3.81
2023-01-29T18:51:01.177Z,3.89
2023-01-29T18:53:29.391Z,3.99
2023-01-29T18:55:59.199Z,3.96
2023-01-29T18:58:36.413Z,3.93
2023-01-29T19:01:09.662Z,3.89
2023-01-29T19:03:38.311Z,3.84
2023-01-29T19:06:10.378Z,3.77
2023-01-29T19:08:39.042Z,3.77
2023-01-29T19:11:09.044Z,3.76
2023-01-29T19:13:38.507Z,3.70
2023-01-29T19:16:09.204Z,3.63
2023-01-29T19:18:37.613Z,3.59
2023-01-29T19:21:11.634Z,3.53
2023-01-29T19:23:40.254Z,3.48
2023-01-29T19:26:08.633Z,3.52
2023-01-29T19:28:36.951Z,3.48
2023-01-29T19:31:05.480Z,3.42
2023-01-29T19:33:34.079Z,3.36
2023-01-29T19:36:02.819Z,3.31
2023-01-29T19:38:37.946Z,3.27
2023-01-29T19:41:06.721Z,3.28
2023-01-29T19:43:35.031Z,3.32
2023-01-29T19:46:03.791Z,3.40
2023-01-29T19:48:32.165Z,3.48
2023-01-29T19:51:02.307Z,3.55
2023-01-29T19:53:32.463Z,3.63
2023-01-29T19:56:02.260Z,3.70
2023-01-29T19:58:31.259Z,3.78
2023-01-29T20:01:01.681Z,3.87
2023-01-29T20:03:30.974Z,3.95
2023-01-29T20:06:03.930Z,4.03
2023-01-29T20:08:34.598Z,4.08
2023-01-29T20:11:03.104Z,4.09
2023-01-29T20:13:31.380Z,4.09
2023-01-29T20:16:03.085Z,4.07
2023-01-29T20:18:31.404Z,4.00
2023-01-29T20:20:59.972Z,3.97
2023-01-29T20:23:37.765Z,4.05
2023-01-29T20:26:09.873Z,4.12
2023-01-29T20:28:38.356Z,4.05
2023-01-29T20:31:08.282Z,4.03
2023-01-29T20:33:39.355Z,4.09
2023-01-29T20:36:10.129Z,4.07
2023-01-29T20:38:38.615Z,4.03
2023-01-29T20:41:10.386Z,3.95
2023-01-29T20:43:38.705Z,3.85
2023-01-29T20:46:07.151Z,3.74
2023-01-29T20:48:35.556Z,3.67
2023-01-29T20:51:06.747Z,3.59
2023-01-29T20:53:35.110Z,3.50
2023-01-29T20:56:04.621Z,3.41
2023-01-29T20:58:35.034Z,3.38
2023-01-29T21:01:07.814Z,3.35
2023-01-29T21:03:36.123Z,3.35
2023-01-29T21:06:04.830Z,3.36
2023-01-29T21:08:33.612Z,3.36
2023-01-29T21:11:01.950Z,3.41
2023-01-29T21:13:30.173Z,3.47
2023-01-29T21:15:59.728Z,3.52
2023-01-29T21:18:27.983Z,3.60
2023-01-29T21:20:56.608Z,3.67
2023-01-29T21:23:24.943Z,3.66
2023-01-29T21:25:53.203Z,3.69
2023-01-29T21:28:21.459Z,3.74
2023-01-29T21:30:49.760Z,3.81
2023-01-29T21:33:19.316Z,3.85
2023-01-29T21:35:47.571Z,3.81
2023-01-29T21:38:15.901Z,3.83
2023-01-29T21:40:44.075Z,3.84
2023-01-29T21:43:12.171Z,3.83
2023-01-29T21:45:41.494Z,3.86
2023-01-29T21:48:10.575Z,3.88
2023-01-29T21:50:40.282Z,3.92
2023-01-29T21:53:08.624Z,3.97
2023-01-29T21:55:36.846Z,3.97
2023-01-29T21:58:05.060Z,3.99
2023-01-29T22:00:33.327Z,4.02
2023-01-29T22:03:01.705Z,3.99
2023-01-29T22:05:30.304Z,3.99
2023-01-29T22:07:59.948Z,4.01
2023-01-29T22:10:28.656Z,4.02
2023-01-29T22:12:57.901Z,4.03
2023-01-29T22:15:26.053Z,4.00
2023-01-29T22:17:54.515Z,4.01
2023-01-29T22:20:29.795Z,4.05
2023-01-29T22:23:00.804Z,4.14
2023-01-29T22:25:29.256Z,4.22
2023-01-29T22:27:57.356Z,4.29
2023-01-29T22:30:25.908Z,4.33
2023-01-29T22:32:54.123Z,4.34
2023-01-29T22:35:22.552Z,4.33
2023-01-29T22:37:50.785Z,4.29
2023-01-29T22:40:20.780Z,4.25
2023-01-29T22:42:49.202Z,4.28
2023-01-29T22:45:17.460Z,4.28
2023-01-29T22:47:45.689Z,4.27
2023-01-29T22:50:14.847Z,4.31
2023-01-29T22:52:54.043Z,4.36
2023-01-29T22:55:23.763Z,4.40
2023-01-29T22:57:53.528Z,4.40
2023-01-29T23:00:22.300Z,4.35
2023-01-29T23:02:50.790Z,4.36
2023-01-29T23:05:19.279Z,4.36
2023-01-29T23:07:47.464Z,4.35
2023-01-29T23:10:16.676Z,4.34
2023-01-29T23:12:46.361Z,4.32
2023-01-29T23:15:14.583Z,4.31
2023-01-29T23:17:42.733Z,4.30
2023-01-29T23:20:12.129Z,4.29
2023-01-29T23:22:40.324Z,4.31
2023-01-29T23:25:09.108Z,4.38
2023-01-29T23:27:36.469Z,4.47
2023-01-29T23:30:07.005Z,4.54
2023-01-29T23:32:35.553Z,4.58
2023-01-29T23:35:03.853Z,4.64
2023-01-29T23:37:32.106Z,4.72
2023-01-29T23:40:00.269Z,4.77
2023-01-29T23:42:28.522Z,4.83
2023-01-29T23:44:56.702Z,4.89
2023-01-29T23:47:26.209Z,4.97
2023-01-29T23:49:54.397Z,5.03
2023-01-29T23:52:22.594Z,5.08
2023-01-29T23:54:50.808Z,5.11
2023-01-29T23:57:19.066Z,5.17
2023-01-29T23:59:47.266Z,5.17
